Alys Beach, Florida
Current Conditions -  °F | °C
As of 2:53 PM on Tuesday 27 Jan 2015 (Local Time) from KECP Reporting Station
Clear Clear  
Wind Chill: 66°   Ceiling: Unl
Heat Index: 66°   Visibility: 10mi
Dew Point: 36°   Wind: 16mph
Humidity: 33%   Direction: 310°NW
Pressure: 29.97"   Gusts: 23mph
Location:  30.2534°N, 85.9486°W
Report Text: KECP 272053Z 31014G20KT 10SM CLR 19/02 A2997 RMK AO2 SLP159 T01890022 55011
Loading
Personal Weather Stations






























Interactive Weather Map New forecast layout! Learn more

10-Day Weather Forecast

Advertisements
Track Severe Weather on mobile